x

South Nomad (46036) Wave Buoy

6:00pm - Fri 24th Feb 2017 All times are UTC.

  • Sig Wave height 11.8ft
  • Peak Period 8s
  • Wind
    27mph, 38mph gusts
  • Sea Temp 46°f
  • Air Temp 43°f
  • Sea Pressure 1023.8mb

More Historic Weather Station data

Upgrade to MSW Pro to gain access to the past 30 days of data for over 8000 Wavebouys and Weather Stations around the globe.

Join Pro

Comparision Forecast

View Surf forecast
   
Fri 02/24 6:00pm 12ft 8s 27 38 mph 1023.8mb 46f 43f
5:00pm 13ft 15s 27 36 mph 1023.7mb 46f 44f
4:00pm 11ft 15s 27 34 mph 1023.1mb 46f 44f
3:00pm 11ft 15s 29 34 mph 1023.3mb 46f 44f
2:00pm 11ft 15s 29 36 mph 1023.5mb 46f 43f
1:00pm 10ft 14s 27 31 mph 1023.7mb 46f 43f
12:00pm 10ft 14s 22 29 mph 1024.5mb 46f 41f
11:00am 9ft 15s 25 31 mph 1025.3mb 46f 42f
10:00am 8.5ft 16s 25 29 mph 1025.8mb 46f 41f
9:00am 8ft 14s 18 25 mph 1026.4mb 46f 42f
8:00am 7.5ft 15s 22 29 mph 1027.2mb 46f 42f
7:00am 7ft 14s 16 18 mph 1027.9mb 46f 42f
6:00am 8ft 14s 18 27 mph 1028mb 46f 42f
5:00am 7ft 15s 16 20 mph 1028.3mb 46f 43f
4:00am 7ft 15s 16 18 mph 1028.7mb 46f 43f
3:00am 6.5ft 15s 11 16 mph 1028.9mb 46f 42f
2:00am 6.5ft 15s 13 18 mph 1029.1mb 46f 42f
1:00am 6.5ft 16s 11 16 mph 1029.6mb 46f 43f
12:00am 6.5ft 16s 13 16 mph 1029.8mb 46f 43f
Thu 02/23 11:00pm 6.5ft 16s 9 11 mph 1029.3mb 46f 43f
10:00pm 6.5ft 16s 11
mph
1029.3mb 46f 42f
9:00pm 7ft 16s 9 11 mph 1029.4mb 46f 42f
8:00pm 6.5ft 16s 9 11 mph 1029.8mb 46f 43f
7:00pm 7ft 16s 13 16 mph 1029.9mb 46f 43f
6:00pm 6.5ft 16s 9 13 mph 1029.7mb 46f 42f
5:00pm 7ft 16s 13 16 mph 1029.4mb 46f 42f
4:00pm 7ft 9s 11 13 mph 1029mb 46f 42f
3:00pm 7ft 10s 11 13 mph 1029.2mb 46f 41f
2:00pm 6.5ft 8s 13 18 mph 1029.1mb 45f 41f
1:00pm 7ft 10s 13 18 mph 1029.2mb 45f 41f
12:00pm 7ft 10s 9 11 mph 1029.5mb 45f 41f
11:00am 7.5ft 9s 9 11 mph 1029.8mb 45f 40f
10:00am 7.5ft 10s 4 9 mph 1030.3mb 45f 40f
Wed 02/22 10:00am 7.5ft 6s 18 27 mph 1027.6mb 46f 41f
9:00am 7ft 7s 13 18 mph 1027.7mb 46f 39f
8:00am 7.5ft 13s 22 29 mph 1027.1mb 46f 39f
7:00am 6.5ft 13s 20 27 mph 1026.5mb 46f 40f
6:00am 6.5ft 14s 18 29 mph 1026.1mb 46f 41f
5:00am 6.5ft 10s 11 13 mph 1025.8mb 45f 40f
4:00am 6ft 10s 2 4 mph 1025.3mb 46f 40f
3:00am 7ft 14s 16 20 mph 1024.6mb 46f 42f
2:00am 6ft 10s 18 25 mph 1024mb 46f 42f
1:00am 6ft 10s 9 13 mph 1023.6mb 46f 42f
12:00am 6.5ft 10s 13 22 mph 1023.4mb 46f 39f
Tue 02/21 11:00pm 5.5ft 10s 13 18 mph 1022.6mb 46f 42f
10:00pm 6ft 11s 13 16 mph 1022mb 46f 41f
9:00pm 6ft 11s 16 18 mph 1021.5mb 46f 41f
8:00pm 5.5ft 11s 13 18 mph 1021mb 46f 41f
7:00pm 6ft 15s 13 18 mph 1020.1mb 46f 42f
6:00pm 5.5ft 11s 13 18 mph 1019mb 46f 42f
5:00pm 5.5ft 11s 13 18 mph 1018.1mb 46f 42f
4:00pm 5.5ft 11s 9 11 mph 1017.3mb 46f 40f
3:00pm 5.5ft 11s 20 25 mph 1016.3mb 46f 40f
2:00pm 5ft 11s 13 18 mph 1015.6mb 46f 42f
1:00pm 5ft 11s 13 18 mph 1014.9mb 46f 41f
12:00pm 5.5ft 10s 13 18 mph 1014.2mb 46f 42f
11:00am 5.5ft 10s 13 16 mph 1013.6mb 46f 42f
10:00am 5ft 11s 9 13 mph 1013.1mb 46f 42f
9:00am 5ft 12s 11 16 mph 1012.5mb 46f 42f
8:00am 5ft 12s 11 13 mph 1011.9mb 45f 42f
7:00am 5.5ft 11s 11 13 mph 1011.3mb 46f 42f
6:00am 6ft 11s 9 13 mph 1010.8mb 46f 42f
5:00am 5.5ft 12s 11 13 mph 1010.2mb 46f 42f
4:00am 5.5ft 11s 13 16 mph 1009.6mb 46f 42f
3:00am 5ft 12s 11 13 mph 1009.1mb 46f 42f
2:00am 5.5ft 12s 11 13 mph 1008.7mb 46f 42f
1:00am 5.5ft 11s 11 13 mph 1008.2mb 46f 42f
12:00am 5.5ft 12s 11 13 mph 1008mb 46f 42f
Mon 02/20 11:00pm 6ft 11s 11 13 mph 1007.4mb 46f 42f
10:00pm 6ft 11s 9 13 mph 1007mb 46f 42f
9:00pm 6ft 11s 11 13 mph 1006.8mb 46f 42f
8:00pm 7ft 12s 9 13 mph 1006.5mb 45f 42f